sensor_id;sensor_type;location;lat;lon;timestamp;pressure;altitude;pressure_sealevel;temperature;humidity
46303;BME280;32029;51.358;5.628;2022-12-29T00:01:00;99875.97;;;13.30;98.89
46303;BME280;32029;51.358;5.628;2022-12-29T00:03:27;99806.44;;;12.91;98.78
46303;BME280;32029;51.358;5.628;2022-12-29T00:05:56;99888.75;;;13.43;98.60
46303;BME280;32029;51.358;5.628;2022-12-29T00:08:24;99880.66;;;13.48;98.30
46303;BME280;32029;51.358;5.628;2022-12-29T00:11:08;99870.25;;;13.50;98.25
46303;BME280;32029;51.358;5.628;2022-12-29T00:13:35;99871.47;;;13.54;97.93
46303;BME280;32029;51.358;5.628;2022-12-29T00:16:20;99883.34;;;13.55;97.81
46303;BME280;32029;51.358;5.628;2022-12-29T00:18:47;99870.97;;;13.57;97.44
46303;BME280;32029;51.358;5.628;2022-12-29T00:21:15;99854.75;;;13.49;97.56
46303;BME280;32029;51.358;5.628;2022-12-29T00:24:01;99864.44;;;13.58;98.12
46303;BME280;32029;51.358;5.628;2022-12-29T00:29:46;99859.97;;;13.57;98.16
46303;BME280;32029;51.358;5.628;2022-12-29T00:32:31;99792.69;;;13.28;97.76
46303;BME280;32029;51.358;5.628;2022-12-29T00:35:33;99848.78;;;13.52;97.93
46303;BME280;32029;51.358;5.628;2022-12-29T00:38:05;99779.59;;;13.05;98.14
46303;BME280;32029;51.358;5.628;2022-12-29T00:40:56;99845.75;;;13.42;98.58
46303;BME280;32029;51.358;5.628;2022-12-29T00:43:41;99844.22;;;13.46;98.48
46303;BME280;32029;51.358;5.628;2022-12-29T00:46:26;99837.63;;;13.47;97.98
46303;BME280;32029;51.358;5.628;2022-12-29T00:48:53;99828.13;;;13.43;97.59
46303;BME280;32029;51.358;5.628;2022-12-29T00:51:38;99834.25;;;13.45;97.11
46303;BME280;32029;51.358;5.628;2022-12-29T00:54:04;99839.75;;;13.45;96.93
46303;BME280;32029;51.358;5.628;2022-12-29T00:56:31;99835.56;;;13.42;97.12
46303;BME280;32029;51.358;5.628;2022-12-29T00:59:03;99811.91;;;13.35;96.81
46303;BME280;32029;51.358;5.628;2022-12-29T01:01:30;99829.56;;;13.45;96.65
46303;BME280;32029;51.358;5.628;2022-12-29T01:03:57;99835.97;;;13.46;96.07
46303;BME280;32029;51.358;5.628;2022-12-29T01:06:26;99745.75;;;12.98;95.69
46303;BME280;32029;51.358;5.628;2022-12-29T01:08:53;99821.56;;;13.44;95.45
46303;BME280;32029;51.358;5.628;2022-12-29T01:11:40;99816.28;;;13.42;95.13
46303;BME280;32029;51.358;5.628;2022-12-29T01:14:07;99810.97;;;13.41;94.50
46303;BME280;32029;51.358;5.628;2022-12-29T01:16:35;99784.81;;;13.32;94.12
46303;BME280;32029;51.358;5.628;2022-12-29T01:19:03;99754.94;;;13.10;93.97
46303;BME280;32029;51.358;5.628;2022-12-29T01:21:32;99775.63;;;13.19;93.78
46303;BME280;32029;51.358;5.628;2022-12-29T01:23:59;99779.38;;;13.25;93.28
46303;BME280;32029;51.358;5.628;2022-12-29T01:26:25;99736.91;;;12.96;92.81
46303;BME280;32029;51.358;5.628;2022-12-29T01:28:52;99821.56;;;13.44;93.11
46303;BME280;32029;51.358;5.628;2022-12-29T01:31:19;99784.06;;;13.24;92.70
46303;BME280;32029;51.358;5.628;2022-12-29T01:33:47;99722.06;;;12.97;92.01
46303;BME280;32029;51.358;5.628;2022-12-29T01:36:15;99811.28;;;13.51;91.83
46303;BME280;32029;51.358;5.628;2022-12-29T01:38:43;99811.06;;;13.53;91.33
46303;BME280;32029;51.358;5.628;2022-12-29T01:41:12;99766.63;;;13.31;91.26
46303;BME280;32029;51.358;5.628;2022-12-29T01:43:46;99818.41;;;13.59;91.11
46303;BME280;32029;51.358;5.628;2022-12-29T01:46:19;99768.59;;;13.42;90.51
46303;BME280;32029;51.358;5.628;2022-12-29T01:48:49;99798.88;;;13.60;90.00
46303;BME280;32029;51.358;5.628;2022-12-29T01:51:17;99761.56;;;13.46;89.85
46303;BME280;32029;51.358;5.628;2022-12-29T01:53:45;99790.47;;;13.55;89.72
46303;BME280;32029;51.358;5.628;2022-12-29T01:56:15;99796.13;;;13.60;89.28
46303;BME280;32029;51.358;5.628;2022-12-29T01:58:46;99802.47;;;13.61;89.20
46303;BME280;32029;51.358;5.628;2022-12-29T02:01:16;99804.38;;;13.60;89.08
46303;BME280;32029;51.358;5.628;2022-12-29T02:03:45;99787.63;;;13.62;88.57
46303;BME280;32029;51.358;5.628;2022-12-29T02:06:15;99800.56;;;13.61;88.82
46303;BME280;32029;51.358;5.628;2022-12-29T02:08:46;99791.75;;;13.53;89.00
46303;BME280;32029;51.358;5.628;2022-12-29T02:11:15;99793.53;;;13.47;89.31
46303;BME280;32029;51.358;5.628;2022-12-29T02:13:42;99802.56;;;13.54;90.29
46303;BME280;32029;51.358;5.628;2022-12-29T02:16:26;99807.84;;;13.56;90.87
46303;BME280;32029;51.358;5.628;2022-12-29T02:19:20;99806.63;;;13.52;90.78
46303;BME280;32029;51.358;5.628;2022-12-29T02:23:05;99801.88;;;13.59;89.58
46303;BME280;32029;51.358;5.628;2022-12-29T02:25:29;99804.84;;;13.57;89.42
46303;BME280;32029;51.358;5.628;2022-12-29T02:34:03;99787.47;;;13.57;89.14
46303;BME280;32029;51.358;5.628;2022-12-29T02:39:19;99758.81;;;13.46;89.48
46303;BME280;32029;51.358;5.628;2022-12-29T02:42:13;99796.28;;;13.65;89.13
46303;BME280;32029;51.358;5.628;2022-12-29T02:47:40;99785.09;;;13.60;89.39
46303;BME280;32029;51.358;5.628;2022-12-29T02:50:14;99749.16;;;13.37;89.99
46303;BME280;32029;51.358;5.628;2022-12-29T02:52:51;99772.63;;;13.58;90.10
46303;BME280;32029;51.358;5.628;2022-12-29T02:55:21;99774.53;;;13.57;89.92
46303;BME280;32029;51.358;5.628;2022-12-29T02:57:47;99753.28;;;13.46;90.13
46303;BME280;32029;51.358;5.628;2022-12-29T03:00:16;99774.19;;;13.54;90.29
46303;BME280;32029;51.358;5.628;2022-12-29T03:05:54;99769.34;;;13.49;91.33
46303;BME280;32029;51.358;5.628;2022-12-29T03:08:39;99745.31;;;13.38;91.31
46303;BME280;32029;51.358;5.628;2022-12-29T03:11:12;99761.31;;;13.47;91.49
46303;BME280;32029;51.358;5.628;2022-12-29T03:17:01;99697.53;;;12.95;91.62
46303;BME280;32029;51.358;5.628;2022-12-29T03:19:35;99736.81;;;13.03;92.13
46303;BME280;32029;51.358;5.628;2022-12-29T03:22:08;99720.59;;;12.94;92.75
46303;BME280;32029;51.358;5.628;2022-12-29T03:24:59;99760.56;;;13.04;93.38
46303;BME280;32029;51.358;5.628;2022-12-29T03:27:30;99736.28;;;12.75;93.69
46303;BME280;32029;51.358;5.628;2022-12-29T03:30:01;99760.38;;;12.80;94.15
46303;BME280;32029;51.358;5.628;2022-12-29T03:32:36;99750.06;;;12.75;94.37
46303;BME280;32029;51.358;5.628;2022-12-29T03:35:06;99703.59;;;12.42;94.24
46303;BME280;32029;51.358;5.628;2022-12-29T03:37:41;99755.81;;;12.67;94.43
46303;BME280;32029;51.358;5.628;2022-12-29T03:40:10;99747.06;;;12.52;94.95
46303;BME280;32029;51.358;5.628;2022-12-29T03:42:39;99740.59;;;12.46;95.85
46303;BME280;32029;51.358;5.628;2022-12-29T03:45:07;99757.03;;;12.53;95.99
46303;BME280;32029;51.358;5.628;2022-12-29T03:47:34;99744.84;;;12.42;96.37
46303;BME280;32029;51.358;5.628;2022-12-29T03:50:01;99712.25;;;12.21;96.32
46303;BME280;32029;51.358;5.628;2022-12-29T03:52:28;99689.69;;;12.12;96.78
46303;BME280;32029;51.358;5.628;2022-12-29T03:54:55;99736.34;;;12.25;97.03
46303;BME280;32029;51.358;5.628;2022-12-29T03:57:21;99722.75;;;12.06;96.69
46303;BME280;32029;51.358;5.628;2022-12-29T03:59:48;99715.38;;;11.99;96.49
46303;BME280;32029;51.358;5.628;2022-12-29T04:02:15;99735.03;;;12.03;96.37
46303;BME280;32029;51.358;5.628;2022-12-29T04:04:42;99720.94;;;11.93;96.39
46303;BME280;32029;51.358;5.628;2022-12-29T04:07:08;99729.31;;;12.05;95.49
46303;BME280;32029;51.358;5.628;2022-12-29T04:09:36;99720.75;;;11.88;94.77
46303;BME280;32029;51.358;5.628;2022-12-29T04:12:03;99788.88;;;12.17;94.68
46303;BME280;32029;51.358;5.628;2022-12-29T04:14:30;99772.81;;;12.14;94.70
46303;BME280;32029;51.358;5.628;2022-12-29T04:16:56;99739.16;;;11.81;95.55
46303;BME280;32029;51.358;5.628;2022-12-29T04:19:23;99775.06;;;11.92;95.79
46303;BME280;32029;51.358;5.628;2022-12-29T04:21:50;99788.78;;;11.99;96.04
46303;BME280;32029;51.358;5.628;2022-12-29T04:24:17;99780.97;;;11.96;95.35
46303;BME280;32029;51.358;5.628;2022-12-29T04:26:43;99705.59;;;11.40;94.83
46303;BME280;32029;51.358;5.628;2022-12-29T04:29:10;99759.56;;;11.66;94.30
46303;BME280;32029;51.358;5.628;2022-12-29T04:31:37;99796.69;;;11.82;94.38
46303;BME280;32029;51.358;5.628;2022-12-29T04:34:04;99800.47;;;11.81;93.95
46303;BME280;32029;51.358;5.628;2022-12-29T04:36:31;99791.81;;;11.77;93.14
46303;BME280;32029;51.358;5.628;2022-12-29T04:38:57;99748.66;;;11.46;93.20
46303;BME280;32029;51.358;5.628;2022-12-29T04:41:24;99796.53;;;11.70;93.13
46303;BME280;32029;51.358;5.628;2022-12-29T04:43:51;99761.78;;;11.44;93.30
46303;BME280;32029;51.358;5.628;2022-12-29T04:46:18;99798.03;;;11.66;93.43
46303;BME280;32029;51.358;5.628;2022-12-29T04:48:45;99726.63;;;11.21;93.77
46303;BME280;32029;51.358;5.628;2022-12-29T04:51:12;99798.47;;;11.63;94.04
46303;BME280;32029;51.358;5.628;2022-12-29T04:53:38;99757.22;;;11.32;94.47
46303;BME280;32029;51.358;5.628;2022-12-29T04:56:05;99806.13;;;11.55;94.46
46303;BME280;32029;51.358;5.628;2022-12-29T04:58:32;99784.38;;;11.46;95.02
46303;BME280;32029;51.358;5.628;2022-12-29T05:00:59;99786.75;;;11.36;95.25
46303;BME280;32029;51.358;5.628;2022-12-29T05:03:26;99772.47;;;11.21;95.58
46303;BME280;32029;51.358;5.628;2022-12-29T05:05:54;99828.53;;;11.51;95.65
46303;BME280;32029;51.358;5.628;2022-12-29T05:08:22;99816.31;;;11.47;96.04
46303;BME280;32029;51.358;5.628;2022-12-29T05:10:52;99796.09;;;11.28;96.00
46303;BME280;32029;51.358;5.628;2022-12-29T05:13:19;99802.03;;;11.19;96.30
46303;BME280;32029;51.358;5.628;2022-12-29T05:15:50;99811.25;;;11.38;96.03
46303;BME280;32029;51.358;5.628;2022-12-29T05:18:18;99834.06;;;11.45;96.15
46303;BME280;32029;51.358;5.628;2022-12-29T05:20:46;99790.78;;;11.27;95.76
46303;BME280;32029;51.358;5.628;2022-12-29T05:23:13;99835.31;;;11.42;95.26
46303;BME280;32029;51.358;5.628;2022-12-29T05:25:40;99771.47;;;11.02;95.11
46303;BME280;32029;51.358;5.628;2022-12-29T05:28:07;99833.41;;;11.43;94.51
46303;BME280;32029;51.358;5.628;2022-12-29T05:30:33;99809.41;;;11.25;94.18
46303;BME280;32029;51.358;5.628;2022-12-29T05:33:00;99853.91;;;11.47;94.12
46303;BME280;32029;51.358;5.628;2022-12-29T05:35:27;99862.34;;;11.52;93.86
46303;BME280;32029;51.358;5.628;2022-12-29T05:37:54;99817.41;;;11.33;93.43
46303;BME280;32029;51.358;5.628;2022-12-29T05:40:21;99822.22;;;11.51;93.02
46303;BME280;32029;51.358;5.628;2022-12-29T05:42:47;99857.59;;;11.72;92.86
46303;BME280;32029;51.358;5.628;2022-12-29T05:45:14;99836.31;;;11.61;92.76
46303;BME280;32029;51.358;5.628;2022-12-29T05:47:41;99832.72;;;11.61;92.45
46303;BME280;32029;51.358;5.628;2022-12-29T05:50:08;99855.50;;;11.74;92.26
46303;BME280;32029;51.358;5.628;2022-12-29T05:52:34;99877.63;;;11.93;92.28
46303;BME280;32029;51.358;5.628;2022-12-29T05:55:01;99873.38;;;11.97;90.90
46303;BME280;32029;51.358;5.628;2022-12-29T05:57:28;99836.28;;;11.68;90.66
46303;BME280;32029;51.358;5.628;2022-12-29T05:59:55;99832.91;;;11.66;90.55
46303;BME280;32029;51.358;5.628;2022-12-29T06:02:21;99858.44;;;11.73;90.15
46303;BME280;32029;51.358;5.628;2022-12-29T06:04:48;99839.22;;;11.73;90.04
46303;BME280;32029;51.358;5.628;2022-12-29T06:07:15;99882.69;;;11.96;89.51
46303;BME280;32029;51.358;5.628;2022-12-29T06:09:41;99862.84;;;11.81;89.39
46303;BME280;32029;51.358;5.628;2022-12-29T06:12:08;99851.25;;;11.78;89.15
46303;BME280;32029;51.358;5.628;2022-12-29T06:14:35;99855.88;;;11.85;89.08
46303;BME280;32029;51.358;5.628;2022-12-29T06:17:02;99888.56;;;12.06;88.72
46303;BME280;32029;51.358;5.628;2022-12-29T06:19:28;99822.53;;;11.68;88.97
46303;BME280;32029;51.358;5.628;2022-12-29T06:21:55;99856.28;;;11.95;88.78
46303;BME280;32029;51.358;5.628;2022-12-29T06:24:21;99860.44;;;12.04;88.79
46303;BME280;32029;51.358;5.628;2022-12-29T06:26:48;99887.81;;;12.24;88.44
46303;BME280;32029;51.358;5.628;2022-12-29T06:29:15;99871.16;;;12.19;88.61
46303;BME280;32029;51.358;5.628;2022-12-29T06:31:44;99854.91;;;12.11;88.82
46303;BME280;32029;51.358;5.628;2022-12-29T06:34:15;99877.59;;;12.38;87.99
46303;BME280;32029;51.358;5.628;2022-12-29T06:36:41;99897.44;;;12.40;87.16
46303;BME280;32029;51.358;5.628;2022-12-29T06:39:10;99883.06;;;12.44;87.33
46303;BME280;32029;51.358;5.628;2022-12-29T06:41:37;99850.34;;;12.30;86.64
46303;BME280;32029;51.358;5.628;2022-12-29T06:44:04;99886.81;;;12.50;86.48
46303;BME280;32029;51.358;5.628;2022-12-29T06:46:31;99882.59;;;12.47;85.70
46303;BME280;32029;51.358;5.628;2022-12-29T06:48:57;99841.28;;;12.22;85.01
46303;BME280;32029;51.358;5.628;2022-12-29T06:51:24;99838.31;;;12.24;85.05
46303;BME280;32029;51.358;5.628;2022-12-29T06:53:51;99826.06;;;12.20;84.40
46303;BME280;32029;51.358;5.628;2022-12-29T06:56:17;99871.19;;;12.44;84.69
46303;BME280;32029;51.358;5.628;2022-12-29T06:58:44;99774.63;;;11.95;84.22
46303;BME280;32029;51.358;5.628;2022-12-29T07:01:11;99886.91;;;12.68;84.34
46303;BME280;32029;51.358;5.628;2022-12-29T07:03:38;99899.34;;;12.71;83.61
46303;BME280;32029;51.358;5.628;2022-12-29T07:06:07;99857.63;;;12.49;82.67
46303;BME280;32029;51.358;5.628;2022-12-29T07:08:34;99900.69;;;12.62;81.72
46303;BME280;32029;51.358;5.628;2022-12-29T07:11:00;99841.91;;;12.24;80.87
46303;BME280;32029;51.358;5.628;2022-12-29T07:13:28;99901.44;;;12.44;80.71
46303;BME280;32029;51.358;5.628;2022-12-29T07:15:55;99880.16;;;12.33;80.41
46303;BME280;32029;51.358;5.628;2022-12-29T07:18:21;99871.19;;;12.12;80.56
46303;BME280;32029;51.358;5.628;2022-12-29T07:20:48;99917.19;;;12.37;80.51
46303;BME280;32029;51.358;5.628;2022-12-29T07:23:15;99867.94;;;11.90;80.33
46303;BME280;32029;51.358;5.628;2022-12-29T07:25:42;99880.34;;;11.99;79.79
46303;BME280;32029;51.358;5.628;2022-12-29T07:28:09;99881.41;;;11.98;79.94
46303;BME280;32029;51.358;5.628;2022-12-29T07:30:37;99909.66;;;12.12;79.71
46303;BME280;32029;51.358;5.628;2022-12-29T07:33:04;99928.22;;;12.23;80.60
46303;BME280;32029;51.358;5.628;2022-12-29T07:35:30;99909.16;;;12.29;80.15
46303;BME280;32029;51.358;5.628;2022-12-29T07:37:57;99918.31;;;12.22;80.05
46303;BME280;32029;51.358;5.628;2022-12-29T07:40:24;99911.97;;;12.22;78.98
46303;BME280;32029;51.358;5.628;2022-12-29T07:43:14;99892.91;;;12.20;78.55
46303;BME280;32029;51.358;5.628;2022-12-29T07:46:09;99919.03;;;12.43;78.85
46303;BME280;32029;51.358;5.628;2022-12-29T07:48:36;99874.38;;;12.09;78.46
46303;BME280;32029;51.358;5.628;2022-12-29T07:51:03;99939.69;;;12.52;77.79
46303;BME280;32029;51.358;5.628;2022-12-29T07:53:36;99877.91;;;12.16;77.08
46303;BME280;32029;51.358;5.628;2022-12-29T07:56:04;99909.53;;;12.39;76.80
46303;BME280;32029;51.358;5.628;2022-12-29T07:58:31;99938.22;;;12.56;77.56
46303;BME280;32029;51.358;5.628;2022-12-29T08:00:57;99901.72;;;12.36;76.15
46303;BME280;32029;51.358;5.628;2022-12-29T08:03:24;99892.44;;;12.30;75.97
46303;BME280;32029;51.358;5.628;2022-12-29T08:05:52;99938.38;;;12.61;75.06
46303;BME280;32029;51.358;5.628;2022-12-29T08:08:19;99943.72;;;12.56;74.67
46303;BME280;32029;51.358;5.628;2022-12-29T08:10:46;99902.88;;;12.21;74.68
46303;BME280;32029;51.358;5.628;2022-12-29T08:13:13;99950.69;;;12.52;74.26
46303;BME280;32029;51.358;5.628;2022-12-29T08:15:40;99923.38;;;12.25;74.87
46303;BME280;32029;51.358;5.628;2022-12-29T08:18:07;99918.91;;;12.24;74.19
46303;BME280;32029;51.358;5.628;2022-12-29T08:20:34;99928.19;;;12.37;74.18
46303;BME280;32029;51.358;5.628;2022-12-29T08:23:00;99954.53;;;12.51;74.61
46303;BME280;32029;51.358;5.628;2022-12-29T08:25:27;99928.78;;;12.39;73.44
46303;BME280;32029;51.358;5.628;2022-12-29T08:27:54;99940.16;;;12.49;73.61
46303;BME280;32029;51.358;5.628;2022-12-29T08:30:20;99919.06;;;12.36;74.52
46303;BME280;32029;51.358;5.628;2022-12-29T08:32:47;99923.00;;;12.47;74.20
46303;BME280;32029;51.358;5.628;2022-12-29T08:35:14;99982.53;;;12.80;73.99
46303;BME280;32029;51.358;5.628;2022-12-29T08:37:40;99928.09;;;12.50;74.10
46303;BME280;32029;51.358;5.628;2022-12-29T08:40:08;99911.41;;;12.45;74.42
46303;BME280;32029;51.358;5.628;2022-12-29T08:42:34;99975.03;;;12.87;73.57
46303;BME280;32029;51.358;5.628;2022-12-29T08:45:01;99935.19;;;12.64;73.52
46303;BME280;32029;51.358;5.628;2022-12-29T08:47:28;99962.22;;;12.74;73.63
46303;BME280;32029;51.358;5.628;2022-12-29T08:49:55;99964.88;;;12.87;73.91
46303;BME280;32029;51.358;5.628;2022-12-29T08:52:21;99915.13;;;12.57;74.31
46303;BME280;32029;51.358;5.628;2022-12-29T08:54:49;99937.22;;;12.75;74.32
46303;BME280;32029;51.358;5.628;2022-12-29T08:57:15;99961.00;;;12.95;73.91
46303;BME280;32029;51.358;5.628;2022-12-29T08:59:42;99984.59;;;13.09;74.25
46303;BME280;32029;51.358;5.628;2022-12-29T09:02:12;99920.72;;;12.75;74.32
46303;BME280;32029;51.358;5.628;2022-12-29T09:04:41;99971.00;;;13.14;74.44
46303;BME280;32029;51.358;5.628;2022-12-29T09:07:07;99922.44;;;12.95;74.11
46303;BME280;32029;51.358;5.628;2022-12-29T09:09:34;99991.22;;;13.33;74.67
46303;BME280;32029;51.358;5.628;2022-12-29T09:12:01;99934.75;;;13.17;74.38
46303;BME280;32029;51.358;5.628;2022-12-29T09:14:28;99910.00;;;12.92;74.16
46303;BME280;32029;51.358;5.628;2022-12-29T09:16:54;99975.53;;;13.34;74.32
46303;BME280;32029;51.358;5.628;2022-12-29T09:19:40;99954.44;;;13.21;74.58
46303;BME280;32029;51.358;5.628;2022-12-29T09:22:06;99927.94;;;12.95;74.42
46303;BME280;32029;51.358;5.628;2022-12-29T09:24:33;99943.53;;;13.08;74.20
46303;BME280;32029;51.358;5.628;2022-12-29T09:27:00;99955.41;;;13.08;74.69
46303;BME280;32029;51.358;5.628;2022-12-29T09:29:26;99981.97;;;13.21;74.69
46303;BME280;32029;51.358;5.628;2022-12-29T09:31:53;99990.47;;;13.19;74.39
46303;BME280;32029;51.358;5.628;2022-12-29T09:34:20;99975.47;;;13.15;74.31
46303;BME280;32029;51.358;5.628;2022-12-29T09:36:47;99985.41;;;13.16;75.09
46303;BME280;32029;51.358;5.628;2022-12-29T09:39:14;99929.75;;;12.83;75.22
46303;BME280;32029;51.358;5.628;2022-12-29T09:41:52;99991.91;;;13.29;74.36
46303;BME280;32029;51.358;5.628;2022-12-29T09:44:38;99999.09;;;13.30;74.05
46303;BME280;32029;51.358;5.628;2022-12-29T09:47:11;99998.69;;;13.26;73.08
46303;BME280;32029;51.358;5.628;2022-12-29T09:49:53;99969.00;;;13.03;74.40
46303;BME280;32029;51.358;5.628;2022-12-29T09:52:32;100009.50;;;13.28;73.98
46303;BME280;32029;51.358;5.628;2022-12-29T09:55:20;100008.88;;;13.26;74.15
46303;BME280;32029;51.358;5.628;2022-12-29T09:57:53;100016.50;;;13.30;74.49
46303;BME280;32029;51.358;5.628;2022-12-29T10:00:23;100032.78;;;13.32;74.29
46303;BME280;32029;51.358;5.628;2022-12-29T10:02:59;100046.41;;;13.27;75.01
46303;BME280;32029;51.358;5.628;2022-12-29T10:05:49;100057.19;;;13.21;75.84
46303;BME280;32029;51.358;5.628;2022-12-29T10:11:08;100059.78;;;13.16;76.27
46303;BME280;32029;51.358;5.628;2022-12-29T10:19:59;100073.66;;;13.03;78.65
46303;BME280;32029;51.358;5.628;2022-12-29T10:25:19;100084.28;;;12.93;80.27
46303;BME280;32029;51.358;5.628;2022-12-29T10:27:51;100079.03;;;12.85;80.87
46303;BME280;32029;51.358;5.628;2022-12-29T10:30:25;100067.88;;;12.80;79.69
46303;BME280;32029;51.358;5.628;2022-12-29T10:32:56;100089.41;;;12.83;80.70
46303;BME280;32029;51.358;5.628;2022-12-29T10:35:35;100025.47;;;12.42;79.93
46303;BME280;32029;51.358;5.628;2022-12-29T10:38:28;100052.34;;;12.47;78.90
46303;BME280;32029;51.358;5.628;2022-12-29T10:41:00;100060.22;;;12.37;79.47
46303;BME280;32029;51.358;5.628;2022-12-29T10:43:36;100103.88;;;12.71;79.07
46303;BME280;32029;51.358;5.628;2022-12-29T10:46:15;100071.00;;;12.45;78.81
46303;BME280;32029;51.358;5.628;2022-12-29T10:48:44;100097.53;;;12.71;78.23
46303;BME280;32029;51.358;5.628;2022-12-29T10:51:22;100126.72;;;12.79;78.43
46303;BME280;32029;51.358;5.628;2022-12-29T10:56:51;100126.31;;;12.75;79.19
46303;BME280;32029;51.358;5.628;2022-12-29T10:59:24;100142.56;;;12.83;78.89
46303;BME280;32029;51.358;5.628;2022-12-29T11:04:55;100132.38;;;12.90;78.63
46303;BME280;32029;51.358;5.628;2022-12-29T11:07:28;100082.09;;;12.63;78.50
46303;BME280;32029;51.358;5.628;2022-12-29T11:13:03;100105.75;;;12.78;77.40
46303;BME280;32029;51.358;5.628;2022-12-29T11:15:48;100158.16;;;13.03;77.55
46303;BME280;32029;51.358;5.628;2022-12-29T11:20:44;100133.34;;;13.09;76.98
46303;BME280;32029;51.358;5.628;2022-12-29T11:26:20;100109.38;;;12.71;77.19
46303;BME280;32029;51.358;5.628;2022-12-29T11:31:41;100159.06;;;12.90;77.35
46303;BME280;32029;51.358;5.628;2022-12-29T11:34:08;100163.97;;;12.88;78.03
46303;BME280;32029;51.358;5.628;2022-12-29T11:36:35;100140.72;;;12.70;78.21
46303;BME280;32029;51.358;5.628;2022-12-29T11:39:02;100176.19;;;12.98;78.45
46303;BME280;32029;51.358;5.628;2022-12-29T11:41:31;100109.44;;;12.65;78.62
46303;BME280;32029;51.358;5.628;2022-12-29T11:44:04;100183.56;;;13.11;77.94
46303;BME280;32029;51.358;5.628;2022-12-29T11:46:34;100178.22;;;13.16;77.86
46303;BME280;32029;51.358;5.628;2022-12-29T11:49:03;100114.44;;;12.74;78.04
46303;BME280;32029;51.358;5.628;2022-12-29T11:51:43;100155.81;;;13.06;77.87
46303;BME280;32029;51.358;5.628;2022-12-29T11:54:18;100176.53;;;13.15;76.98
46303;BME280;32029;51.358;5.628;2022-12-29T11:56:48;100201.47;;;13.34;76.40
46303;BME280;32029;51.358;5.628;2022-12-29T11:59:34;100104.41;;;12.93;76.42
46303;BME280;32029;51.358;5.628;2022-12-29T12:02:26;100200.34;;;13.48;75.27
46303;BME280;32029;51.358;5.628;2022-12-29T12:05:24;100168.41;;;13.34;75.01
46303;BME280;32029;51.358;5.628;2022-12-29T12:08:05;100191.66;;;13.44;74.20
46303;BME280;32029;51.358;5.628;2022-12-29T12:10:42;100172.41;;;13.38;73.23
46303;BME280;32029;51.358;5.628;2022-12-29T12:13:18;100191.47;;;13.46;73.86
46303;BME280;32029;51.358;5.628;2022-12-29T12:15:54;100162.72;;;13.29;74.11
46303;BME280;32029;51.358;5.628;2022-12-29T12:18:37;100169.47;;;13.33;73.89
46303;BME280;32029;51.358;5.628;2022-12-29T12:21:14;100155.13;;;13.17;73.17
46303;BME280;32029;51.358;5.628;2022-12-29T12:24:07;100191.69;;;13.38;73.53
46303;BME280;32029;51.358;5.628;2022-12-29T12:27:07;100187.50;;;13.35;73.81
46303;BME280;32029;51.358;5.628;2022-12-29T12:29:52;100191.34;;;13.28;73.71
46303;BME280;32029;51.358;5.628;2022-12-29T12:32:39;100163.06;;;13.00;74.46
46303;BME280;32029;51.358;5.628;2022-12-29T12:35:13;100187.56;;;13.15;73.91
46303;BME280;32029;51.358;5.628;2022-12-29T12:38:37;100213.16;;;13.29;73.82
46303;BME280;32029;51.358;5.628;2022-12-29T12:43:46;100193.56;;;12.99;74.39
46303;BME280;32029;51.358;5.628;2022-12-29T12:46:45;100208.59;;;13.03;75.13
46303;BME280;32029;51.358;5.628;2022-12-29T12:55:06;100129.78;;;12.50;76.41
46303;BME280;32029;51.358;5.628;2022-12-29T12:57:54;100216.03;;;12.96;76.26
46303;BME280;32029;51.358;5.628;2022-12-29T13:00:23;100179.50;;;12.62;76.44
46303;BME280;32029;51.358;5.628;2022-12-29T13:06:09;100226.16;;;13.02;76.70
46303;BME280;32029;51.358;5.628;2022-12-29T13:08:57;100177.16;;;12.72;76.91
46303;BME280;32029;51.358;5.628;2022-12-29T13:12:05;100173.34;;;12.73;77.55
46303;BME280;32029;51.358;5.628;2022-12-29T13:14:51;100191.91;;;12.91;77.62
46303;BME280;32029;51.358;5.628;2022-12-29T13:17:28;100226.56;;;13.12;78.04
46303;BME280;32029;51.358;5.628;2022-12-29T13:20:11;100224.41;;;13.21;78.01
46303;BME280;32029;51.358;5.628;2022-12-29T13:25:54;100223.31;;;13.22;78.17
46303;BME280;32029;51.358;5.628;2022-12-29T13:28:32;100167.75;;;12.87;78.44
46303;BME280;32029;51.358;5.628;2022-12-29T13:31:24;100223.56;;;13.20;78.70
46303;BME280;32029;51.358;5.628;2022-12-29T13:36:53;100196.13;;;12.94;78.15
46303;BME280;32029;51.358;5.628;2022-12-29T13:39:36;100197.78;;;13.02;78.44
46303;BME280;32029;51.358;5.628;2022-12-29T13:42:04;100210.03;;;13.12;78.45
46303;BME280;32029;51.358;5.628;2022-12-29T13:44:34;100206.63;;;13.23;78.14
46303;BME280;32029;51.358;5.628;2022-12-29T13:49:44;100219.91;;;13.33;77.25
46303;BME280;32029;51.358;5.628;2022-12-29T13:52:37;100240.84;;;13.47;77.13
46303;BME280;32029;51.358;5.628;2022-12-29T13:55:32;100251.88;;;13.41;77.26
46303;BME280;32029;51.358;5.628;2022-12-29T14:00:53;100237.09;;;13.35;75.96
46303;BME280;32029;51.358;5.628;2022-12-29T14:06:12;100255.78;;;13.20;76.87
46303;BME280;32029;51.358;5.628;2022-12-29T14:08:40;100263.81;;;13.21;76.92
46303;BME280;32029;51.358;5.628;2022-12-29T14:11:11;100259.13;;;13.22;76.83
46303;BME280;32029;51.358;5.628;2022-12-29T14:13:43;100244.00;;;12.99;76.12
46303;BME280;32029;51.358;5.628;2022-12-29T14:18:51;100281.41;;;13.14;76.68
46303;BME280;32029;51.358;5.628;2022-12-29T14:21:22;100275.72;;;13.15;76.67
46303;BME280;32029;51.358;5.628;2022-12-29T14:23:50;100246.09;;;12.97;75.89
46303;BME280;32029;51.358;5.628;2022-12-29T14:28:56;100256.09;;;12.85;75.76
46303;BME280;32029;51.358;5.628;2022-12-29T14:39:29;100266.09;;;12.66;76.77
46303;BME280;32029;51.358;5.628;2022-12-29T14:44:29;100290.63;;;12.81;77.46
46303;BME280;32029;51.358;5.628;2022-12-29T14:47:00;100269.91;;;12.72;77.30
46303;BME280;32029;51.358;5.628;2022-12-29T14:49:30;100268.00;;;12.66;77.46
46303;BME280;32029;51.358;5.628;2022-12-29T14:52:17;100291.28;;;12.77;77.55
46303;BME280;32029;51.358;5.628;2022-12-29T14:54:53;100289.38;;;12.70;77.19